createdAt,value
2023-03-04T00:01:14.919Z,0.60
2023-03-04T00:03:48.825Z,0.70
2023-03-04T00:06:22.285Z,0.70
2023-03-04T00:08:49.805Z,0.60
2023-03-04T00:11:17.366Z,0.70
2023-03-04T00:13:44.859Z,0.70
2023-03-04T00:16:12.383Z,0.60
2023-03-04T00:18:40.001Z,0.50
2023-03-04T00:21:07.572Z,0.40
2023-03-04T00:23:35.211Z,0.20
2023-03-04T00:26:02.753Z,0.90
2023-03-04T00:28:30.105Z,0.70
2023-03-04T00:31:00.359Z,0.10
2023-03-04T00:33:30.896Z,0.10
2023-03-04T00:35:58.728Z,0.10
2023-03-04T00:38:28.960Z,0.20
2023-03-04T00:40:56.627Z,0.10
2023-03-04T00:43:25.029Z,0.00
2023-03-04T00:45:52.851Z,-0.10
2023-03-04T00:48:20.616Z,-0.40
2023-03-04T00:50:50.526Z,0.10
2023-03-04T00:53:28.330Z,-0.40
2023-03-04T00:55:55.826Z,-0.50
2023-03-04T00:58:24.149Z,-0.30
2023-03-04T01:00:52.148Z,-0.50
2023-03-04T01:03:19.670Z,-0.40
2023-03-04T01:05:47.392Z,-0.50
2023-03-04T01:08:14.931Z,-0.10
2023-03-04T01:11:02.461Z,-0.20
2023-03-04T01:13:40.478Z,0.10
2023-03-04T01:16:08.616Z,0.00
2023-03-04T01:18:36.049Z,-0.20
2023-03-04T01:21:03.839Z,-0.10
2023-03-04T01:23:31.177Z,-0.40
2023-03-04T01:25:58.503Z,-0.30
2023-03-04T01:28:27.131Z,-0.30
2023-03-04T01:30:54.664Z,-0.20
2023-03-04T01:33:22.158Z,-0.20
2023-03-04T01:35:49.678Z,-0.30
2023-03-04T01:38:19.823Z,-0.40
2023-03-04T01:40:49.714Z,-0.50
2023-03-04T01:43:24.828Z,-0.60
2023-03-04T01:45:56.133Z,-0.80
2023-03-04T01:48:35.309Z,-0.50
2023-03-04T01:51:05.144Z,-0.60
2023-03-04T01:53:35.874Z,-0.80
2023-03-04T01:56:26.312Z,-0.90
2023-03-04T01:59:26.979Z,-0.60
2023-03-04T02:02:01.173Z,-0.60
2023-03-04T02:04:35.053Z,-0.60
2023-03-04T02:07:05.323Z,-0.60
2023-03-04T02:09:38.016Z,-0.80
2023-03-04T02:12:07.931Z,-0.80
2023-03-04T02:14:37.739Z,-0.80
2023-03-04T02:17:15.064Z,-0.70
2023-03-04T02:19:53.766Z,-0.80
2023-03-04T02:22:23.750Z,-0.90
2023-03-04T02:25:06.928Z,-0.90
2023-03-04T02:27:34.583Z,-1.10
2023-03-04T02:30:06.099Z,-0.90
2023-03-04T02:32:38.494Z,-1.10
2023-03-04T02:35:20.074Z,-2.10
2023-03-04T02:37:47.871Z,-1.30
2023-03-04T02:40:28.970Z,-1.40
2023-03-04T02:42:59.140Z,-1.30
2023-03-04T02:45:46.208Z,-1.30
2023-03-04T02:48:18.667Z,-1.20
2023-03-04T02:50:53.304Z,0.00
2023-03-04T02:53:25.017Z,-1.20
2023-03-04T02:55:52.969Z,-0.90
2023-03-04T02:58:20.315Z,-1.30
2023-03-04T03:00:48.282Z,-1.20
2023-03-04T03:03:16.191Z,-0.90
2023-03-04T03:05:43.908Z,-1.20
2023-03-04T03:08:11.731Z,-1.20
2023-03-04T03:10:39.313Z,-1.10
2023-03-04T03:13:06.932Z,-1.30
2023-03-04T03:15:34.383Z,-1.10
2023-03-04T03:18:01.748Z,-1.50
2023-03-04T03:20:29.132Z,-1.50
2023-03-04T03:22:56.536Z,-1.50
2023-03-04T03:25:24.000Z,-1.50
2023-03-04T03:27:51.407Z,-1.50
2023-03-04T03:30:19.020Z,-1.60
2023-03-04T03:32:46.467Z,-1.60
2023-03-04T03:35:23.564Z,-1.50
2023-03-04T03:37:56.780Z,-1.60
2023-03-04T03:40:24.429Z,-1.60
2023-03-04T03:42:51.967Z,-1.50
2023-03-04T03:45:19.533Z,-1.40
2023-03-04T03:47:54.668Z,-1.60
2023-03-04T03:50:22.137Z,-1.80
2023-03-04T03:52:49.879Z,-1.60
2023-03-04T03:55:17.510Z,-1.50
2023-03-04T03:57:44.819Z,-1.60
2023-03-04T04:00:13.102Z,-1.40
2023-03-04T04:02:41.374Z,-1.50
2023-03-04T04:05:11.374Z,-1.40
2023-03-04T04:07:39.454Z,-1.50
2023-03-04T04:10:07.534Z,-1.40
2023-03-04T04:12:35.443Z,-1.60
2023-03-04T04:15:02.972Z,-1.60
2023-03-04T04:17:31.854Z,-1.70
2023-03-04T04:20:10.007Z,-1.80
2023-03-04T04:22:37.501Z,-1.90
2023-03-04T04:25:05.743Z,-0.70
2023-03-04T04:27:33.342Z,-1.80
2023-03-04T04:30:00.725Z,-1.90
2023-03-04T04:32:48.552Z,-1.70
2023-03-04T04:35:19.275Z,-1.80
2023-03-04T04:37:47.270Z,-1.90
2023-03-04T04:40:15.017Z,-1.70
2023-03-04T04:42:43.868Z,-2.00
2023-03-04T04:45:12.678Z,-1.80
2023-03-04T04:47:40.177Z,-2.00
2023-03-04T04:50:11.675Z,-1.90
2023-03-04T04:52:39.345Z,-1.70
2023-03-04T04:55:07.493Z,-1.70
2023-03-04T04:57:38.370Z,-1.90
2023-03-04T05:00:08.215Z,-1.80
2023-03-04T05:02:36.644Z,-1.80
2023-03-04T05:05:07.021Z,-1.90
2023-03-04T05:07:35.202Z,-1.90
2023-03-04T05:10:03.316Z,-1.80
2023-03-04T05:12:31.023Z,-1.80
2023-03-04T05:14:58.365Z,-2.20
2023-03-04T05:17:25.900Z,-2.10
2023-03-04T05:19:53.247Z,-2.10
2023-03-04T05:22:21.133Z,-2.00
2023-03-04T05:24:49.723Z,-2.20
2023-03-04T05:27:17.685Z,-2.00
2023-03-04T05:29:46.930Z,-2.10
2023-03-04T05:32:14.660Z,-2.00
2023-03-04T05:34:42.409Z,-1.80
2023-03-04T05:37:10.041Z,-1.90
2023-03-04T05:39:37.533Z,-2.00
2023-03-04T05:42:05.155Z,-1.80
2023-03-04T05:44:32.680Z,-2.00
2023-03-04T05:47:00.242Z,-1.80
2023-03-04T05:49:27.593Z,-1.80
2023-03-04T05:51:55.628Z,-1.60
2023-03-04T05:54:23.247Z,-1.70
2023-03-04T05:56:50.773Z,-1.50
2023-03-04T05:59:20.975Z,-1.50
2023-03-04T06:01:48.862Z,-1.40
2023-03-04T06:04:16.884Z,-1.70
2023-03-04T06:06:46.670Z,-1.80
2023-03-04T06:09:15.636Z,-1.60
2023-03-04T06:11:43.540Z,-1.70
2023-03-04T06:14:11.043Z,-1.30
2023-03-04T06:16:38.897Z,-1.10
2023-03-04T06:19:07.068Z,-1.00
2023-03-04T06:21:38.725Z,-0.70
2023-03-04T06:24:09.554Z,-0.30
2023-03-04T06:26:37.211Z,-0.10
2023-03-04T06:29:06.170Z,-0.20
2023-03-04T06:31:33.677Z,-0.10
2023-03-04T06:34:01.328Z,0.10
2023-03-04T06:36:31.767Z,0.20
2023-03-04T06:39:12.475Z,0.50
2023-03-04T06:41:40.246Z,0.50
2023-03-04T06:44:08.750Z,1.00
2023-03-04T06:46:37.106Z,1.50
2023-03-04T06:49:04.618Z,1.90
2023-03-04T06:51:33.596Z,2.10
2023-03-04T06:54:01.257Z,1.80
2023-03-04T06:56:54.029Z,1.80
2023-03-04T06:59:33.585Z,1.50
2023-03-04T07:02:01.750Z,1.90
2023-03-04T07:04:29.416Z,2.50
2023-03-04T07:06:57.024Z,2.60
2023-03-04T07:09:24.790Z,3.20
2023-03-04T07:11:52.294Z,3.20
2023-03-04T07:14:22.401Z,3.10
2023-03-04T07:16:52.916Z,3.10
2023-03-04T07:19:20.795Z,3.90
2023-03-04T07:21:49.235Z,4.70
2023-03-04T07:25:33.657Z,5.00
2023-03-04T07:28:01.899Z,6.90
2023-03-04T07:30:29.737Z,7.10
2023-03-04T07:33:14.452Z,7.00
2023-03-04T07:35:43.852Z,6.60
2023-03-04T07:38:11.571Z,6.20
2023-03-04T07:40:39.862Z,5.80
2023-03-04T07:43:07.640Z,5.10
2023-03-04T07:45:40.677Z,4.80
2023-03-04T07:48:08.490Z,4.50
2023-03-04T07:50:45.315Z,4.30
2023-03-04T07:53:12.918Z,4.30
2023-03-04T07:55:40.331Z,4.10
2023-03-04T07:58:08.218Z,3.70
2023-03-04T08:00:35.585Z,3.80
2023-03-04T08:03:03.029Z,4.10
2023-03-04T08:05:30.455Z,4.60
2023-03-04T08:07:58.301Z,5.70
2023-03-04T08:10:27.086Z,6.30
2023-03-04T08:12:54.635Z,6.40
2023-03-04T08:15:22.070Z,6.80
2023-03-04T08:17:49.752Z,6.90
2023-03-04T08:20:17.220Z,6.90
2023-03-04T08:22:44.971Z,7.50
2023-03-04T08:25:12.597Z,8.00
2023-03-04T08:27:46.693Z,8.20
2023-03-04T08:30:59.302Z,8.60
2023-03-04T08:33:30.464Z,8.70
2023-03-04T08:36:10.653Z,8.80
2023-03-04T08:38:39.187Z,9.50
2023-03-04T08:41:08.507Z,9.90
2023-03-04T08:43:36.066Z,9.70
2023-03-04T08:46:06.392Z,9.80
2023-03-04T08:48:34.596Z,9.70
2023-03-04T08:51:02.680Z,9.50
2023-03-04T08:53:37.850Z,9.50
2023-03-04T08:56:25.669Z,9.80
2023-03-04T08:59:10.655Z,9.70
2023-03-04T09:01:38.378Z,10.00
2023-03-04T09:04:06.158Z,10.30
2023-03-04T09:06:36.469Z,10.40
2023-03-04T09:09:05.774Z,10.10
2023-03-04T09:11:33.218Z,10.00
2023-03-04T09:14:00.605Z,10.40
2023-03-04T09:16:28.386Z,10.60
2023-03-04T09:18:55.861Z,10.50
2023-03-04T09:21:23.858Z,10.40
2023-03-04T09:23:51.518Z,10.30
2023-03-04T09:26:26.841Z,10.80
2023-03-04T09:28:58.280Z,10.50
2023-03-04T09:31:27.606Z,11.00
2023-03-04T09:33:57.354Z,10.90
2023-03-04T09:36:25.364Z,10.80
2023-03-04T09:38:52.905Z,10.90
2023-03-04T09:41:30.518Z,10.90
2023-03-04T09:43:59.760Z,10.80
2023-03-04T09:46:49.167Z,10.80
2023-03-04T09:49:19.217Z,10.70
2023-03-04T09:52:18.275Z,11.20
2023-03-04T09:55:20.002Z,10.60
2023-03-04T09:58:04.346Z,11.30
2023-03-04T10:00:44.689Z,11.50
2023-03-04T10:03:50.142Z,11.20
2023-03-04T10:06:23.429Z,11.30
2023-03-04T10:09:25.524Z,11.30
2023-03-04T10:12:13.892Z,11.40
2023-03-04T10:15:23.629Z,11.80
2023-03-04T10:18:04.006Z,11.90
2023-03-04T10:21:14.966Z,12.30
2023-03-04T10:23:42.876Z,12.30
2023-03-04T10:26:22.723Z,11.90
2023-03-04T10:28:54.808Z,12.00
2023-03-04T10:31:36.920Z,11.90
2023-03-04T10:34:53.863Z,12.40
2023-03-04T10:37:11.082Z,12.70
2023-03-04T10:39:47.286Z,12.70
2023-03-04T10:42:14.743Z,12.80
2023-03-04T10:44:53.227Z,12.80
2023-03-04T10:47:36.880Z,12.20
2023-03-04T10:50:10.541Z,12.30
2023-03-04T10:52:54.639Z,12.50
2023-03-04T10:55:30.382Z,12.70
2023-03-04T10:58:06.963Z,12.40
2023-03-04T11:00:37.715Z,12.60
2023-03-04T11:03:30.233Z,12.50
2023-03-04T11:06:21.346Z,12.70
2023-03-04T11:09:01.730Z,12.70
2023-03-04T11:11:44.157Z,13.00
2023-03-04T11:14:41.512Z,12.60
2023-03-04T11:17:23.918Z,12.60
2023-03-04T11:20:25.054Z,12.20
2023-03-04T11:23:04.528Z,12.40
2023-03-04T11:25:42.997Z,12.50
2023-03-04T11:28:29.468Z,12.60
2023-03-04T11:31:12.431Z,12.50
2023-03-04T11:34:19.524Z,12.30
2023-03-04T11:37:04.821Z,12.80
2023-03-04T11:39:46.501Z,13.10
2023-03-04T11:42:25.482Z,13.00
2023-03-04T11:44:53.256Z,13.10
2023-03-04T11:47:38.733Z,13.10
2023-03-04T11:50:29.773Z,13.10
2023-03-04T11:53:35.721Z,13.50
2023-03-04T11:56:39.757Z,13.40
2023-03-04T11:59:37.622Z,13.40
2023-03-04T12:02:33.593Z,13.80
2023-03-04T12:05:28.108Z,13.70
2023-03-04T12:08:14.373Z,13.90
2023-03-04T12:11:19.432Z,13.60
2023-03-04T12:14:08.020Z,13.40
2023-03-04T12:16:48.161Z,13.40
2023-03-04T12:19:49.157Z,13.10
2023-03-04T12:22:42.714Z,12.50
2023-03-04T12:25:45.696Z,12.60
2023-03-04T12:28:36.934Z,13.00
2023-03-04T12:31:21.651Z,13.10
2023-03-04T12:34:31.761Z,12.60
2023-03-04T12:37:35.907Z,12.60
2023-03-04T12:40:43.787Z,12.80
2023-03-04T12:43:41.488Z,12.80
2023-03-04T12:46:36.459Z,12.70
2023-03-04T12:49:41.050Z,12.80
2023-03-04T12:52:39.357Z,12.70
2023-03-04T12:55:21.862Z,12.70
2023-03-04T12:57:56.636Z,13.00
2023-03-04T13:00:49.076Z,13.10
2023-03-04T13:03:51.423Z,12.80
2023-03-04T13:06:59.027Z,12.90
2023-03-04T13:09:36.206Z,12.50
2023-03-04T13:12:25.859Z,12.70
2023-03-04T13:15:10.694Z,12.70
2023-03-04T13:18:24.161Z,12.50
2023-03-04T13:21:24.308Z,11.90
2023-03-04T13:23:53.862Z,12.10
2023-03-04T13:26:36.543Z,11.70
2023-03-04T13:29:20.889Z,11.80
2023-03-04T13:32:17.668Z,11.70
2023-03-04T13:34:54.095Z,11.70
2023-03-04T13:37:37.230Z,11.60
2023-03-04T13:40:23.520Z,11.50
2023-03-04T13:42:51.410Z,11.60
2023-03-04T13:45:54.156Z,11.30
2023-03-04T13:48:37.469Z,11.20
2023-03-04T13:51:23.750Z,10.80
2023-03-04T13:53:59.063Z,10.90
2023-03-04T13:56:37.267Z,10.40
2023-03-04T13:59:07.881Z,10.30
2023-03-04T14:01:44.787Z,10.20
2023-03-04T14:04:26.845Z,9.60
2023-03-04T14:06:58.554Z,9.60
2023-03-04T14:09:33.045Z,9.40
2023-03-04T14:12:14.400Z,9.20
2023-03-04T14:14:54.149Z,8.70
2023-03-04T14:17:28.334Z,8.70
2023-03-04T14:19:56.024Z,8.60
2023-03-04T14:22:30.856Z,8.50
2023-03-04T14:25:03.674Z,8.60
2023-03-04T14:27:36.329Z,8.40
2023-03-04T14:30:09.470Z,8.00
2023-03-04T14:32:37.061Z,8.10
2023-03-04T14:35:18.210Z,7.70
2023-03-04T14:38:06.735Z,7.70
2023-03-04T14:40:50.335Z,7.60
2023-03-04T14:43:30.433Z,7.50
2023-03-04T14:46:04.383Z,7.50
2023-03-04T14:48:35.435Z,7.40
2023-03-04T14:51:03.863Z,7.40
2023-03-04T14:53:33.452Z,6.90
2023-03-04T14:56:13.886Z,6.80
2023-03-04T14:58:55.823Z,6.90
2023-03-04T15:01:51.906Z,7.00
2023-03-04T15:04:20.508Z,7.00
2023-03-04T15:06:53.849Z,6.70
2023-03-04T15:09:45.589Z,6.80
2023-03-04T15:12:41.614Z,6.40
2023-03-04T15:15:41.042Z,6.40
2023-03-04T15:18:36.222Z,6.40
2023-03-04T15:21:27.400Z,6.30
2023-03-04T15:23:57.931Z,6.50
2023-03-04T15:26:33.742Z,6.40
2023-03-04T15:29:03.829Z,6.40
2023-03-04T15:31:32.661Z,6.10
2023-03-04T15:37:46.156Z,6.20
2023-03-04T15:41:58.418Z,6.10
2023-03-04T15:44:18.966Z,6.30
2023-03-04T15:46:49.773Z,6.20
2023-03-04T15:49:17.879Z,6.20
2023-03-04T15:51:52.479Z,6.10
2023-03-04T15:54:20.294Z,6.40
2023-03-04T15:56:51.038Z,6.30
2023-03-04T15:59:24.488Z,6.20
2023-03-04T16:01:55.045Z,6.00
2023-03-04T16:05:09.667Z,6.00
2023-03-04T16:09:17.432Z,6.00
2023-03-04T16:11:47.890Z,6.30
2023-03-04T16:14:17.794Z,6.10
2023-03-04T16:16:48.999Z,5.90
2023-03-04T16:19:16.368Z,5.80
2023-03-04T16:21:43.843Z,6.00
2023-03-04T16:24:33.173Z,6.00
2023-03-04T16:27:00.826Z,6.00
2023-03-04T16:29:41.674Z,5.50
2023-03-04T16:32:11.117Z,5.70
2023-03-04T16:34:38.669Z,6.10
2023-03-04T16:37:19.224Z,6.00
2023-03-04T16:39:49.332Z,5.90
2023-03-04T16:42:19.445Z,6.10
2023-03-04T16:44:47.232Z,6.00
2023-03-04T16:47:16.550Z,6.20
2023-03-04T16:49:45.087Z,6.10
2023-03-04T16:52:33.682Z,6.10
2023-03-04T16:55:21.161Z,5.80
2023-03-04T16:57:49.267Z,5.90
2023-03-04T17:00:23.153Z,5.40
2023-03-04T17:03:00.311Z,5.60
2023-03-04T17:05:32.236Z,5.60
2023-03-04T17:07:59.721Z,5.20
2023-03-04T17:10:27.145Z,5.40
2023-03-04T17:12:55.342Z,5.20
2023-03-04T17:15:22.890Z,5.10
2023-03-04T17:17:53.105Z,5.30
2023-03-04T17:20:20.886Z,5.20
2023-03-04T17:22:48.614Z,5.10
2023-03-04T17:25:16.600Z,4.80
2023-03-04T17:27:44.054Z,4.80
2023-03-04T17:30:13.663Z,4.60
2023-03-04T17:32:41.155Z,5.00
2023-03-04T17:35:10.320Z,4.70
2023-03-04T17:37:39.683Z,4.80
2023-03-04T17:40:14.654Z,4.90
2023-03-04T17:42:48.504Z,4.90
2023-03-04T17:45:18.669Z,5.30
2023-03-04T17:47:46.738Z,5.00
2023-03-04T17:50:14.974Z,5.00
2023-03-04T17:53:01.721Z,5.00
2023-03-04T17:55:29.096Z,5.10
2023-03-04T17:57:58.405Z,5.00
2023-03-04T18:00:28.044Z,4.90
2023-03-04T18:03:15.224Z,4.80
2023-03-04T18:05:43.290Z,5.00
2023-03-04T18:08:10.874Z,4.70
2023-03-04T18:10:40.255Z,4.70
2023-03-04T18:13:08.718Z,4.60
2023-03-04T18:15:36.157Z,4.70
2023-03-04T18:18:04.379Z,4.30
2023-03-04T18:20:31.870Z,4.70
2023-03-04T18:22:59.537Z,4.60
2023-03-04T18:25:26.919Z,4.80
2023-03-04T18:27:57.934Z,5.20
2023-03-04T18:30:27.742Z,4.90
2023-03-04T18:33:01.069Z,5.00
2023-03-04T18:35:29.228Z,5.40
2023-03-04T18:37:56.576Z,4.90
2023-03-04T18:40:23.961Z,5.10
2023-03-04T18:43:10.030Z,5.10
2023-03-04T18:45:37.318Z,5.10
2023-03-04T18:48:05.684Z,4.80
2023-03-04T18:50:33.095Z,5.10
2023-03-04T18:53:02.518Z,5.20
2023-03-04T18:55:37.244Z,5.10
2023-03-04T18:58:05.094Z,4.90
2023-03-04T19:00:32.394Z,5.10
2023-03-04T19:03:18.306Z,4.90
2023-03-04T19:05:45.737Z,5.10
2023-03-04T19:08:14.236Z,4.80
2023-03-04T19:10:43.915Z,4.70
2023-03-04T19:13:11.174Z,4.90
2023-03-04T19:15:38.414Z,5.10
2023-03-04T19:18:05.901Z,4.90
2023-03-04T19:20:34.036Z,4.60
2023-03-04T19:23:01.383Z,4.70
2023-03-04T19:25:31.090Z,4.90
2023-03-04T19:27:58.420Z,5.10
2023-03-04T19:30:31.312Z,4.90
2023-03-04T19:32:59.453Z,4.60
2023-03-04T19:35:26.905Z,4.60
2023-03-04T19:37:54.129Z,4.70
2023-03-04T19:40:21.301Z,4.60
2023-03-04T19:42:48.569Z,4.50
2023-03-04T19:45:17.629Z,4.60
2023-03-04T19:47:44.848Z,4.50
2023-03-04T19:50:13.451Z,4.60
2023-03-04T19:52:40.893Z,4.50
2023-03-04T19:55:10.505Z,4.40
2023-03-04T19:57:37.893Z,4.30
2023-03-04T20:00:06.090Z,4.30
2023-03-04T20:02:43.963Z,4.30
2023-03-04T20:05:12.500Z,4.40
2023-03-04T20:07:40.452Z,4.20
2023-03-04T20:10:09.221Z,4.00
2023-03-04T20:12:37.953Z,4.40
2023-03-04T20:15:09.108Z,4.30
2023-03-04T20:17:36.477Z,4.20
2023-03-04T20:20:04.549Z,4.10
2023-03-04T20:22:31.929Z,3.70
2023-03-04T20:24:59.176Z,3.80
2023-03-04T20:27:28.941Z,3.70
2023-03-04T20:29:56.698Z,4.00
2023-03-04T20:32:24.069Z,3.80
2023-03-04T20:34:57.025Z,3.70
2023-03-04T20:37:25.813Z,3.70
2023-03-04T20:39:53.172Z,3.80
2023-03-04T20:42:22.529Z,3.90
2023-03-04T20:44:50.030Z,4.10
2023-03-04T20:47:17.488Z,4.20
2023-03-04T20:49:45.010Z,4.10
2023-03-04T20:52:12.394Z,4.10
2023-03-04T20:54:40.461Z,3.80
2023-03-04T20:57:08.528Z,3.90
2023-03-04T20:59:38.050Z,4.10
2023-03-04T21:02:09.297Z,4.00
2023-03-04T21:04:36.569Z,4.20
2023-03-04T21:07:04.018Z,4.10
2023-03-04T21:09:31.570Z,4.10
2023-03-04T21:12:00.897Z,4.40
2023-03-04T21:14:31.721Z,4.10
2023-03-04T21:17:03.032Z,4.10
2023-03-04T21:19:35.814Z,4.00
2023-03-04T21:22:04.494Z,4.40
2023-03-04T21:24:35.521Z,3.90
2023-03-04T21:27:04.770Z,4.60
2023-03-04T21:29:32.304Z,3.80
2023-03-04T21:32:23.881Z,3.80
2023-03-04T21:34:54.854Z,3.60
2023-03-04T21:37:25.482Z,4.00
2023-03-04T21:40:01.386Z,3.80
2023-03-04T21:42:29.014Z,4.00
2023-03-04T21:44:56.336Z,4.00
2023-03-04T21:47:23.798Z,3.80
2023-03-04T21:49:51.655Z,4.00
2023-03-04T21:52:21.582Z,3.90
2023-03-04T21:54:49.845Z,4.00
2023-03-04T21:57:17.482Z,3.80
2023-03-04T21:59:44.893Z,3.80
2023-03-04T22:02:22.829Z,3.80
2023-03-04T22:04:50.466Z,3.90
2023-03-04T22:07:17.968Z,3.70
2023-03-04T22:09:45.633Z,3.70
2023-03-04T22:12:14.501Z,4.20
2023-03-04T22:14:41.948Z,4.10
2023-03-04T22:17:09.769Z,4.00
2023-03-04T22:19:37.230Z,4.20
2023-03-04T22:22:04.662Z,3.90
2023-03-04T22:24:34.163Z,4.00
2023-03-04T22:27:01.634Z,4.10
2023-03-04T22:29:28.878Z,4.10
2023-03-04T22:31:56.341Z,3.80
2023-03-04T22:34:23.677Z,3.80
2023-03-04T22:36:51.717Z,3.90
2023-03-04T22:39:19.713Z,4.20
2023-03-04T22:41:48.354Z,3.90
2023-03-04T22:44:16.316Z,3.90
2023-03-04T22:46:44.019Z,4.00
2023-03-04T22:49:14.475Z,3.90
2023-03-04T22:51:44.637Z,3.90
2023-03-04T22:54:19.858Z,3.60
2023-03-04T22:56:48.571Z,4.00
2023-03-04T22:59:15.807Z,3.90
2023-03-04T23:01:43.363Z,3.80
2023-03-04T23:04:10.996Z,3.70
2023-03-04T23:06:38.430Z,4.10
2023-03-04T23:09:05.976Z,3.80
2023-03-04T23:11:41.525Z,4.10
2023-03-04T23:14:11.727Z,3.70
2023-03-04T23:16:43.408Z,4.00
2023-03-04T23:19:17.736Z,3.70
2023-03-04T23:21:45.381Z,3.90
2023-03-04T23:24:14.439Z,3.80
2023-03-04T23:26:42.957Z,4.10
2023-03-04T23:29:15.464Z,4.00
2023-03-04T23:31:44.500Z,4.00
2023-03-04T23:34:12.790Z,3.80
2023-03-04T23:36:40.892Z,3.70
2023-03-04T23:39:08.960Z,4.00
2023-03-04T23:41:38.976Z,3.90
2023-03-04T23:44:08.344Z,4.00
2023-03-04T23:46:37.833Z,4.00
2023-03-04T23:49:07.763Z,3.60
2023-03-04T23:51:35.534Z,3.70
2023-03-04T23:54:03.160Z,4.90
2023-03-04T23:56:31.644Z,3.70
2023-03-04T23:59:00.452Z,4.00
